Time;durP1;ratioP1;P1;durP2;ratioP2;P2;SDS_P1;SDS_P2;PMS_P1;PMS_P2;Temp;Humidity;BMP_temperature;BMP_pressure;BME280_temperature;BME280_humidity;BME280_pressure;Samples;Min_cycle;Max_cycle;Signal;HPM_P1;HPM_P2
2021/07/30 00:02:21;;;;;;;0.20;0.20;;;17.20;99.90;;;;;;5093768;28;20198;-86
2021/07/30 00:04:47;;;;;;;0.30;0.30;;;17.30;99.90;;;;;;5090789;28;20172;-86
2021/07/30 00:07:12;;;;;;;0.60;0.37;;;17.30;99.90;;;;;;5099317;28;20180;-86
2021/07/30 00:09:38;;;;;;;0.20;0.20;;;17.20;99.90;;;;;;5109320;28;20215;-86
2021/07/30 00:12:05;;;;;;;0.10;0.10;;;17.20;99.90;;;;;;5095380;28;20583;-87
2021/07/30 00:14:30;;;;;;;2.13;0.47;;;17.20;99.90;;;;;;5078197;28;20331;-86
2021/07/30 00:16:56;;;;;;;0.20;0.20;;;17.10;99.90;;;;;;5106313;28;20671;-86
2021/07/30 00:19:22;;;;;;;0.30;0.30;;;17.00;99.90;;;;;;5094045;28;20550;-86
2021/07/30 00:21:47;;;;;;;0.20;0.20;;;17.10;99.90;;;;;;5099524;28;20195;-86
2021/07/30 00:24:13;;;;;;;0.90;0.57;;;17.10;99.90;;;;;;5088590;28;20191;-86
2021/07/30 00:26:38;;;;;;;1.90;0.57;;;17.00;99.90;;;;;;5099409;28;20188;-86
2021/07/30 00:29:04;;;;;;;0.40;0.30;;;16.90;99.90;;;;;;5083629;28;20208;-86
2021/07/30 00:31:38;;;;;;;0.33;0.33;;;16.70;99.90;;;;;;5101740;28;20205;-86
2021/07/30 00:34:03;;;;;;;0.20;0.20;;;16.70;99.90;;;;;;5094751;28;20176;-86
2021/07/30 00:36:29;;;;;;;0.40;0.40;;;16.60;99.90;;;;;;5104688;28;20178;-86
2021/07/30 00:38:54;;;;;;;0.20;0.20;;;16.70;99.90;;;;;;5097280;28;20560;-86
2021/07/30 00:41:20;;;;;;;0.13;0.13;;;16.40;99.90;;;;;;5105605;28;20747;-86
2021/07/30 00:43:45;;;;;;;0.20;0.20;;;16.20;99.90;;;;;;5098196;28;20233;-86
2021/07/30 00:46:11;;;;;;;0.30;0.30;;;16.10;99.90;;;;;;5091174;28;20180;-86
2021/07/30 00:48:38;;;;;;;0.53;0.53;;;16.10;99.90;;;;;;5100184;28;20172;-86
2021/07/30 00:51:03;;;;;;;0.20;0.20;;;16.10;99.90;;;;;;5108618;28;20689;-86
2021/07/30 00:53:29;;;;;;;0.30;0.30;;;16.10;99.90;;;;;;5093320;28;20255;-86
2021/07/30 00:55:58;;;;;;;0.53;0.40;;;16.20;99.90;;;;;;5108812;28;20202;-87
2021/07/30 00:58:26;;;;;;;0.17;0.17;;;16.20;99.90;;;;;;5104655;28;20182;-86
2021/07/30 01:00:52;;;;;;;0.20;0.20;;;16.30;99.90;;;;;;5100517;28;20198;-86
2021/07/30 01:03:18;;;;;;;0.93;0.33;;;16.40;99.90;;;;;;5092558;28;20237;-87
2021/07/30 01:05:44;;;;;;;0.30;0.30;;;16.50;99.90;;;;;;5097975;28;20199;-86
2021/07/30 01:08:10;;;;;;;0.30;0.30;;;16.50;99.90;;;;;;5097361;28;20171;-87
2021/07/30 01:10:35;;;;;;;0.20;0.20;;;16.60;99.90;;;;;;5102775;28;20217;-87
2021/07/30 01:13:01;;;;;;;1.40;0.30;;;16.50;99.90;;;;;;5099224;28;20172;-86
2021/07/30 01:15:27;;;;;;;0.50;0.50;;;16.30;99.90;;;;;;5107703;28;20183;-86
2021/07/30 01:17:52;;;;;;;0.40;0.40;;;16.20;99.90;;;;;;5083344;28;20252;-86
2021/07/30 01:20:23;;;;;;;0.57;0.30;;;16.10;99.90;;;;;;5090351;28;20210;-86
2021/07/30 01:22:57;;;;;;;2.20;0.40;;;16.00;99.90;;;;;;5099059;28;20180;-86
2021/07/30 01:25:24;;;;;;;0.57;0.57;;;16.10;99.90;;;;;;5094713;28;20588;-86
2021/07/30 01:27:50;;;;;;;0.20;0.20;;;16.30;99.90;;;;;;5088170;28;20184;-86
2021/07/30 01:30:18;;;;;;;0.40;0.40;;;16.10;99.90;;;;;;5100080;28;20256;-86
2021/07/30 01:32:44;;;;;;;0.87;0.57;;;15.90;99.90;;;;;;5107609;28;20553;-86
2021/07/30 01:35:10;;;;;;;0.20;0.20;;;15.50;99.90;;;;;;5110464;28;20267;-86
2021/07/30 01:37:36;;;;;;;0.60;0.33;;;15.40;99.90;;;;;;5095164;28;20185;-86
2021/07/30 01:40:03;;;;;;;0.20;0.20;;;15.30;99.90;;;;;;5106148;28;20245;-86
2021/07/30 01:42:29;;;;;;;0.77;0.40;;;15.30;99.90;;;;;;5103065;28;20190;-86
2021/07/30 01:44:55;;;;;;;0.30;0.30;;;15.20;99.90;;;;;;5113590;28;20182;-86
2021/07/30 01:47:21;;;;;;;0.50;0.50;;;15.20;99.90;;;;;;5111911;28;20579;-86
2021/07/30 01:49:47;;;;;;;0.10;0.10;;;15.20;99.90;;;;;;5104316;28;20208;-86
2021/07/30 01:52:18;;;;;;;0.50;0.50;;;15.30;99.90;;;;;;5094749;28;20180;-86
2021/07/30 01:54:45;;;;;;;0.10;0.10;;;15.30;99.90;;;;;;5103877;28;20183;-86
2021/07/30 01:57:11;;;;;;;0.20;0.20;;;15.30;99.90;;;;;;5108488;28;20666;-87
2021/07/30 01:59:37;;;;;;;0.43;0.40;;;15.20;99.90;;;;;;5094229;28;20178;-86
2021/07/30 02:02:02;;;;;;;0.10;0.10;;;15.30;99.90;;;;;;5096426;28;20183;-86
2021/07/30 02:04:28;;;;;;;0.10;0.10;;;15.30;99.90;;;;;;5101881;28;20588;-86
2021/07/30 02:06:54;;;;;;;0.10;0.10;;;15.30;99.90;;;;;;5098596;28;20179;-86
2021/07/30 02:09:19;;;;;;;0.13;0.13;;;15.40;99.90;;;;;;5103025;28;20229;-86
2021/07/30 02:11:53;;;;;;;0.20;0.20;;;15.40;99.90;;;;;;5099635;28;20252;-86
2021/07/30 02:14:20;;;;;;;0.20;0.20;;;15.50;99.90;;;;;;5107890;28;20189;-86
2021/07/30 02:16:47;;;;;;;0.20;0.20;;;15.50;99.90;;;;;;5090660;28;20178;-86
2021/07/30 02:19:14;;;;;;;0.20;0.20;;;15.60;99.90;;;;;;5075251;28;20190;-86
2021/07/30 02:21:40;;;;;;;0.40;0.33;;;15.60;99.90;;;;;;5096301;28;21199;-86
2021/07/30 02:24:06;;;;;;;0.27;0.27;;;15.60;99.90;;;;;;5098924;28;20247;-86
2021/07/30 02:26:32;;;;;;;0.50;0.37;;;15.60;99.90;;;;;;5106967;28;20205;-86
2021/07/30 02:28:58;;;;;;;0.27;0.27;;;15.70;99.90;;;;;;5106283;28;20660;-86
2021/07/30 02:31:24;;;;;;;0.20;0.20;;;15.70;99.90;;;;;;5100371;28;20545;-88
2021/07/30 02:33:51;;;;;;;0.50;0.47;;;15.80;99.90;;;;;;5097749;28;20188;-86
2021/07/30 02:36:16;;;;;;;0.40;0.40;;;15.70;99.90;;;;;;5091005;28;20179;-86
2021/07/30 02:38:42;;;;;;;0.27;0.27;;;15.80;99.90;;;;;;5098637;28;20700;-86
2021/07/30 02:41:08;;;;;;;0.20;0.20;;;15.80;99.90;;;;;;5099542;28;20276;-86
2021/07/30 02:43:34;;;;;;;0.30;0.30;;;15.80;99.90;;;;;;5100967;28;20659;-86
2021/07/30 02:46:00;;;;;;;0.30;0.30;;;15.60;99.90;;;;;;5107146;28;20210;-86
2021/07/30 02:48:25;;;;;;;0.57;0.57;;;15.30;99.90;;;;;;5097094;28;20196;-86
2021/07/30 02:50:51;;;;;;;0.47;0.43;;;15.10;99.90;;;;;;5091655;28;20211;-86
2021/07/30 02:53:16;;;;;;;0.47;0.30;;;15.00;99.90;;;;;;5109695;28;20233;-86
2021/07/30 02:55:42;;;;;;;0.50;0.50;;;15.00;99.90;;;;;;5104533;28;20277;-86
2021/07/30 02:58:08;;;;;;;0.33;0.30;;;15.00;99.90;;;;;;5084816;28;20261;-86
2021/07/30 03:00:34;;;;;;;0.20;0.20;;;14.90;99.90;;;;;;5092793;28;20225;-86
2021/07/30 03:02:59;;;;;;;0.50;0.40;;;14.80;99.90;;;;;;5092278;28;20214;-86
2021/07/30 03:05:25;;;;;;;0.30;0.30;;;14.90;99.90;;;;;;5096018;28;20173;-86
2021/07/30 03:07:50;;;;;;;0.20;0.20;;;15.10;99.90;;;;;;5096373;28;20235;-86
2021/07/30 03:10:16;;;;;;;0.33;0.30;;;15.20;99.90;;;;;;5096419;28;20226;-86
2021/07/30 03:12:41;;;;;;;0.17;0.17;;;15.30;99.90;;;;;;5109233;28;20178;-86
2021/07/30 03:15:07;;;;;;;0.20;0.20;;;15.30;99.90;;;;;;5093824;28;20183;-86
2021/07/30 03:17:33;;;;;;;1.03;0.30;;;15.40;99.90;;;;;;5108134;28;20690;-86
2021/07/30 03:19:58;;;;;;;0.43;0.43;;;15.50;99.90;;;;;;5095202;28;20554;-86
2021/07/30 03:22:24;;;;;;;0.23;0.23;;;15.50;99.90;;;;;;5094418;28;20644;-86
2021/07/30 03:24:49;;;;;;;0.17;0.17;;;15.50;99.90;;;;;;5107374;28;20206;-86
2021/07/30 03:27:15;;;;;;;0.50;0.50;;;15.50;99.90;;;;;;5108224;28;20272;-86
2021/07/30 03:29:40;;;;;;;0.20;0.20;;;15.50;99.90;;;;;;5093265;28;20203;-86
2021/07/30 03:32:08;;;;;;;0.50;0.50;;;15.60;99.90;;;;;;5089320;28;20190;-86
2021/07/30 03:34:34;;;;;;;1.80;0.20;;;15.60;99.90;;;;;;5092367;28;20272;-86
2021/07/30 03:37:02;;;;;;;0.40;0.40;;;15.60;99.90;;;;;;5104431;28;20181;-86
2021/07/30 03:39:28;;;;;;;0.63;0.50;;;15.60;99.90;;;;;;5093587;28;20244;-86
2021/07/30 03:41:54;;;;;;;0.37;0.20;;;15.60;99.90;;;;;;5097476;28;20191;-86
2021/07/30 03:44:19;;;;;;;0.43;0.30;;;15.60;99.90;;;;;;5104657;28;20218;-86
2021/07/30 03:46:45;;;;;;;0.50;0.20;;;15.60;99.90;;;;;;5104943;28;20190;-86
2021/07/30 03:49:10;;;;;;;0.30;0.27;;;15.60;99.90;;;;;;5098067;28;20180;-88
2021/07/30 03:51:36;;;;;;;0.10;0.10;;;15.60;99.90;;;;;;5100345;28;20203;-86
2021/07/30 03:54:01;;;;;;;0.40;0.40;;;15.60;99.90;;;;;;5084630;28;20183;-86
2021/07/30 03:56:27;;;;;;;0.10;0.10;;;15.70;99.90;;;;;;5085843;28;20191;-85
2021/07/30 03:58:52;;;;;;;0.23;0.23;;;15.60;99.90;;;;;;5094708;28;20170;-86
2021/07/30 04:01:19;;;;;;;0.30;0.23;;;15.70;99.90;;;;;;5083639;28;20216;-86
2021/07/30 04:03:45;;;;;;;0.30;0.30;;;15.70;99.90;;;;;;5095251;28;20178;-86
2021/07/30 04:06:11;;;;;;;1.37;0.67;;;15.80;99.90;;;;;;5091059;28;20229;-86
2021/07/30 04:08:37;;;;;;;0.20;0.20;;;15.80;99.90;;;;;;5087611;28;20198;-86
2021/07/30 04:11:04;;;;;;;0.20;0.20;;;15.70;99.90;;;;;;5089621;28;20213;-86
2021/07/30 04:13:32;;;;;;;0.20;0.20;;;15.90;99.90;;;;;;5104403;28;20550;-86
2021/07/30 04:16:14;;;;;;;0.20;0.20;;;15.90;99.90;;;;;;5082916;28;20184;-86
2021/07/30 04:18:39;;;;;;;0.20;0.20;;;15.80;99.90;;;;;;5079270;28;20261;-86
2021/07/30 04:21:06;;;;;;;0.30;0.30;;;15.90;99.90;;;;;;5088069;28;20229;-86
2021/07/30 04:23:32;;;;;;;0.87;0.30;;;15.90;99.90;;;;;;5096451;28;20193;-86
2021/07/30 04:25:58;;;;;;;0.20;0.20;;;15.90;99.90;;;;;;5086349;28;20238;-86
2021/07/30 04:28:23;;;;;;;0.20;0.20;;;15.70;99.90;;;;;;5084808;28;20200;-86
2021/07/30 04:30:49;;;;;;;0.30;0.30;;;15.70;99.90;;;;;;5087881;28;20212;-86
2021/07/30 04:33:15;;;;;;;0.77;0.37;;;15.70;99.90;;;;;;5091721;28;20189;-86
2021/07/30 04:35:40;;;;;;;0.20;0.20;;;15.60;99.90;;;;;;5084783;28;20311;-86
2021/07/30 04:38:06;;;;;;;0.40;0.30;;;15.50;99.90;;;;;;5103630;28;20187;-87
2021/07/30 04:40:32;;;;;;;0.37;0.37;;;15.70;99.90;;;;;;5101556;28;20205;-86
2021/07/30 04:42:58;;;;;;;0.20;0.20;;;15.40;99.90;;;;;;5097885;28;20178;-87
2021/07/30 04:45:24;;;;;;;0.30;0.30;;;15.50;99.90;;;;;;5101588;28;20196;-86
2021/07/30 04:47:50;;;;;;;0.10;0.10;;;15.70;99.90;;;;;;5086864;28;20188;-86
2021/07/30 04:50:16;;;;;;;0.30;0.30;;;15.60;99.90;;;;;;5090955;28;20210;-85
2021/07/30 04:52:41;;;;;;;0.20;0.20;;;15.80;99.90;;;;;;5104898;28;20188;-85
2021/07/30 04:55:07;;;;;;;0.30;0.30;;;15.70;99.90;;;;;;5101738;28;20171;-87
2021/07/30 04:57:33;;;;;;;0.30;0.30;;;15.70;99.90;;;;;;5071494;28;20183;-86
2021/07/30 04:59:58;;;;;;;0.20;0.20;;;15.70;99.90;;;;;;5099495;28;20213;-86
2021/07/30 05:02:24;;;;;;;0.70;0.60;;;15.90;99.90;;;;;;5107723;28;20230;-86
2021/07/30 05:04:54;;;;;;;0.37;0.37;;;16.20;99.90;;;;;;5095356;28;20244;-86
2021/07/30 05:07:21;;;;;;;0.10;0.10;;;16.40;99.90;;;;;;5097338;28;20583;-86
2021/07/30 05:09:47;;;;;;;0.27;0.27;;;16.50;99.90;;;;;;5098315;28;20218;-86
2021/07/30 05:12:12;;;;;;;0.10;0.10;;;16.60;99.90;;;;;;5086897;28;20670;-85
2021/07/30 05:14:38;;;;;;;0.33;0.33;;;16.70;99.90;;;;;;5085665;28;20190;-84
2021/07/30 05:17:04;;;;;;;0.67;0.30;;;16.90;99.90;;;;;;5079108;28;20188;-85
2021/07/30 05:19:29;;;;;;;0.20;0.20;;;17.00;99.90;;;;;;5081672;28;20189;-85
2021/07/30 05:21:55;;;;;;;0.10;0.10;;;17.10;99.90;;;;;;5098110;28;20192;-85
2021/07/30 05:24:20;;;;;;;0.50;0.50;;;17.30;99.90;;;;;;5079159;28;20210;-86
2021/07/30 05:26:46;;;;;;;0.33;0.30;;;17.40;99.90;;;;;;5077964;28;20188;-87
2021/07/30 05:29:11;;;;;;;0.17;0.17;;;17.40;99.90;;;;;;5103171;28;20697;-86
2021/07/30 05:31:37;;;;;;;0.13;0.13;;;17.60;99.90;;;;;;5089638;28;20192;-86
2021/07/30 05:34:02;;;;;;;0.37;0.37;;;17.50;99.90;;;;;;5098968;28;20179;-87
2021/07/30 05:36:28;;;;;;;0.30;0.27;;;17.60;99.90;;;;;;5106763;28;20263;-87
2021/07/30 05:38:54;;;;;;;0.50;0.30;;;17.70;99.90;;;;;;5104553;28;20688;-87
2021/07/30 05:41:19;;;;;;;0.40;0.40;;;17.80;99.90;;;;;;5098108;28;20198;-85
2021/07/30 05:43:52;;;;;;;0.10;0.10;;;17.90;99.90;;;;;;5098610;28;20177;-86
2021/07/30 05:46:21;;;;;;;0.20;0.20;;;17.90;99.90;;;;;;5106630;28;20651;-87
2021/07/30 05:48:47;;;;;;;0.63;0.33;;;18.00;99.90;;;;;;5095750;28;20656;-86
2021/07/30 05:51:13;;;;;;;0.40;0.40;;;18.00;99.90;;;;;;5081899;28;20220;-87
2021/07/30 05:53:40;;;;;;;0.83;0.70;;;18.10;99.90;;;;;;5106286;27;20184;-87
2021/07/30 05:56:06;;;;;;;0.10;0.10;;;18.10;99.90;;;;;;5094514;28;20169;-87
2021/07/30 05:58:32;;;;;;;0.20;0.20;;;18.20;99.90;;;;;;5085134;28;20180;-86
2021/07/30 06:00:59;;;;;;;0.30;0.30;;;18.20;99.90;;;;;;5105075;28;20253;-87
2021/07/30 06:03:24;;;;;;;0.30;0.30;;;18.20;99.90;;;;;;5110564;28;20549;-87
2021/07/30 06:05:50;;;;;;;0.33;0.33;;;18.30;99.90;;;;;;5104846;27;20296;-87
2021/07/30 06:08:16;;;;;;;0.50;0.50;;;18.40;99.90;;;;;;5089499;28;20209;-86
2021/07/30 06:10:41;;;;;;;0.17;0.17;;;18.60;99.90;;;;;;5101061;28;20714;-87
2021/07/30 06:13:07;;;;;;;0.13;0.13;;;18.70;99.90;;;;;;5089953;28;20315;-86
2021/07/30 06:15:33;;;;;;;0.20;0.20;;;18.80;99.90;;;;;;5093570;28;20180;-86
2021/07/30 06:18:02;;;;;;;0.47;0.40;;;18.90;99.90;;;;;;5088975;28;20188;-85
2021/07/30 06:20:28;;;;;;;0.23;0.23;;;19.00;99.90;;;;;;5100289;28;20739;-86
2021/07/30 06:22:53;;;;;;;0.40;0.30;;;19.10;99.90;;;;;;5092115;28;20276;-86
2021/07/30 06:25:19;;;;;;;0.57;0.57;;;19.20;99.90;;;;;;5105091;27;20216;-86
2021/07/30 06:27:45;;;;;;;0.50;0.50;;;19.30;99.90;;;;;;5091899;28;20192;-87
2021/07/30 06:30:17;;;;;;;0.20;0.20;;;19.40;99.90;;;;;;5094247;28;20211;-87
2021/07/30 06:32:43;;;;;;;0.37;0.37;;;19.60;99.90;;;;;;5104215;28;20176;-87
2021/07/30 06:35:09;;;;;;;2.27;0.20;;;19.60;99.90;;;;;;5104409;28;20181;-87
2021/07/30 06:37:36;;;;;;;1.50;0.30;;;19.70;99.90;;;;;;5093890;28;20180;-87
2021/07/30 06:40:03;;;;;;;0.20;0.20;;;19.70;99.90;;;;;;5098901;28;20214;-86
2021/07/30 06:42:38;;;;;;;2.13;0.77;;;19.80;99.90;;;;;;5097176;28;20198;-87
2021/07/30 06:45:04;;;;;;;0.50;0.50;;;19.80;99.90;;;;;;5089105;28;20177;-85
2021/07/30 06:47:32;;;;;;;0.40;0.40;;;20.10;99.90;;;;;;5085561;28;20214;-86
2021/07/30 06:49:57;;;;;;;0.30;0.30;;;20.30;99.90;;;;;;5091211;28;20714;-85
2021/07/30 06:52:23;;;;;;;0.50;0.50;;;20.50;99.90;;;;;;5099023;28;20181;-86
2021/07/30 06:54:52;;;;;;;0.37;0.37;;;20.50;99.90;;;;;;5108111;28;20187;-86
2021/07/30 06:57:18;;;;;;;0.20;0.20;;;20.60;99.90;;;;;;5090071;28;20180;-86
2021/07/30 06:59:43;;;;;;;0.43;0.43;;;20.70;99.90;;;;;;5089618;28;20214;-86
2021/07/30 07:02:12;;;;;;;0.30;0.30;;;20.90;99.90;;;;;;5096370;28;20181;-86
2021/07/30 07:04:37;;;;;;;0.27;0.27;;;21.00;99.90;;;;;;5081482;28;20189;-86
2021/07/30 07:07:05;;;;;;;0.60;0.40;;;21.20;99.90;;;;;;5089458;28;20187;-86
2021/07/30 07:09:30;;;;;;;0.40;0.33;;;21.30;99.90;;;;;;5077615;28;20679;-87
2021/07/30 07:11:56;;;;;;;0.20;0.20;;;21.30;99.90;;;;;;5086577;28;20263;-86
2021/07/30 07:14:21;;;;;;;0.40;0.40;;;21.30;99.90;;;;;;5104227;28;20180;-85
2021/07/30 07:16:47;;;;;;;0.47;0.47;;;21.30;99.90;;;;;;5095423;28;20226;-86
2021/07/30 07:19:13;;;;;;;0.40;0.30;;;21.20;99.90;;;;;;5096110;28;20222;-85
2021/07/30 07:21:40;;;;;;;0.70;0.40;;;21.20;99.90;;;;;;5093409;28;20203;-87
2021/07/30 07:24:07;;;;;;;0.50;0.50;;;21.20;99.90;;;;;;5104844;28;20224;-86
2021/07/30 07:26:36;;;;;;;1.47;0.50;;;21.30;99.90;;;;;;5090449;28;20237;-86
2021/07/30 07:29:02;;;;;;;0.73;0.73;;;21.40;99.90;;;;;;5091020;28;20176;-87
2021/07/30 07:31:30;;;;;;;0.50;0.50;;;21.40;99.90;;;;;;5105840;28;20298;-86
2021/07/30 07:33:55;;;;;;;0.33;0.33;;;21.60;99.90;;;;;;5087628;28;20693;-86
2021/07/30 07:36:21;;;;;;;0.40;0.40;;;21.70;99.90;;;;;;5094867;28;20211;-88
2021/07/30 07:38:46;;;;;;;0.37;0.37;;;21.90;99.90;;;;;;5093674;28;20188;-87
2021/07/30 07:41:12;;;;;;;0.50;0.50;;;22.10;99.90;;;;;;5098181;28;20203;-87
2021/07/30 07:43:38;;;;;;;0.20;0.20;;;22.30;99.90;;;;;;5101922;28;20285;-87
2021/07/30 07:46:04;;;;;;;0.37;0.37;;;22.40;99.90;;;;;;5099326;28;20216;-87
2021/07/30 07:48:32;;;;;;;0.17;0.17;;;22.40;99.90;;;;;;5097859;28;20625;-87
2021/07/30 07:50:57;;;;;;;0.37;0.30;;;22.40;99.90;;;;;;5099765;28;20216;-87
2021/07/30 07:53:23;;;;;;;1.80;0.53;;;22.70;99.90;;;;;;5101720;28;20259;-86
2021/07/30 07:55:58;;;;;;;0.50;0.50;;;22.80;99.90;;;;;;5105604;28;20164;-87
2021/07/30 07:58:23;;;;;;;0.70;0.70;;;22.80;99.90;;;;;;5111495;27;20195;-87
2021/07/30 08:00:49;;;;;;;0.50;0.50;;;22.60;99.90;;;;;;5093993;28;20208;-85
2021/07/30 08:03:14;;;;;;;0.30;0.30;;;22.60;99.90;;;;;;5098964;28;20180;-86
2021/07/30 08:05:40;;;;;;;0.37;0.37;;;22.60;99.90;;;;;;5095656;28;20920;-86
2021/07/30 08:08:06;;;;;;;0.50;0.50;;;22.80;99.90;;;;;;5095151;28;20550;-85
2021/07/30 08:10:33;;;;;;;0.93;0.50;;;22.80;99.90;;;;;;5092252;28;20208;-85
2021/07/30 08:12:58;;;;;;;0.37;0.30;;;22.90;99.90;;;;;;5096328;27;22011;-87
2021/07/30 08:15:24;;;;;;;0.57;0.43;;;22.90;99.90;;;;;;5097340;28;20193;-85
2021/07/30 08:17:49;;;;;;;0.30;0.30;;;22.80;99.90;;;;;;5098891;28;20197;-85
2021/07/30 08:20:15;;;;;;;0.30;0.30;;;23.00;99.90;;;;;;5096622;28;20248;-86
2021/07/30 08:22:43;;;;;;;0.20;0.20;;;23.10;99.90;;;;;;5090103;28;20252;-86
2021/07/30 08:25:10;;;;;;;0.20;0.20;;;23.30;99.90;;;;;;5103608;28;20187;-86
2021/07/30 08:27:35;;;;;;;0.20;0.20;;;23.30;99.90;;;;;;5099773;28;20183;-86
2021/07/30 08:30:01;;;;;;;0.30;0.30;;;23.50;99.90;;;;;;5101497;28;20208;-86
2021/07/30 08:32:27;;;;;;;0.20;0.20;;;23.00;99.90;;;;;;5111857;27;20184;-85
2021/07/30 08:34:52;;;;;;;1.13;0.60;;;23.30;99.90;;;;;;5094406;28;20574;-86
2021/07/30 08:37:18;;;;;;;0.40;0.40;;;23.20;99.90;;;;;;5087711;28;20187;-85
2021/07/30 08:39:43;;;;;;;0.47;0.47;;;23.50;99.90;;;;;;5092874;28;20179;-85
2021/07/30 08:42:09;;;;;;;0.30;0.30;;;23.70;99.90;;;;;;5093594;28;20225;-86
2021/07/30 08:44:35;;;;;;;0.50;0.50;;;24.00;99.90;;;;;;5092300;28;20242;-86
2021/07/30 08:47:00;;;;;;;0.30;0.30;;;24.10;99.90;;;;;;5094978;28;20172;-86
2021/07/30 08:49:26;;;;;;;0.33;0.33;;;24.20;99.90;;;;;;5086129;28;20232;-85
2021/07/30 08:52:07;;;;;;;0.40;0.40;;;24.30;99.90;;;;;;5099188;28;20198;-86
2021/07/30 08:54:33;;;;;;;3.00;2.30;;;24.40;99.90;;;;;;5086985;28;20173;-86
2021/07/30 08:56:58;;;;;;;0.50;0.50;;;24.30;99.90;;;;;;5094151;28;20173;-86
2021/07/30 08:59:24;;;;;;;0.53;0.53;;;24.30;99.90;;;;;;5087006;28;20207;-85
2021/07/30 09:01:53;;;;;;;0.30;0.30;;;24.30;99.90;;;;;;5093784;28;20198;-85
2021/07/30 09:04:29;;;;;;;0.53;0.50;;;24.30;99.90;;;;;;5095308;28;20181;-86
2021/07/30 09:06:55;;;;;;;0.40;0.40;;;24.60;99.90;;;;;;5095198;28;20177;-86
2021/07/30 09:09:21;;;;;;;0.40;0.40;;;24.80;99.90;;;;;;5103214;28;20180;-86
2021/07/30 09:11:51;;;;;;;0.30;0.30;;;25.00;99.90;;;;;;5102861;28;20199;-86
2021/07/30 09:14:32;;;;;;;0.33;0.33;;;25.00;99.90;;;;;;5102580;28;20559;-86
2021/07/30 09:16:58;;;;;;;0.63;0.63;;;24.80;99.90;;;;;;5094365;28;20603;-86
2021/07/30 09:19:23;;;;;;;0.30;0.30;;;24.70;99.90;;;;;;5103894;28;20259;-86
2021/07/30 09:22:09;;;;;;;0.30;0.30;;;24.70;99.90;;;;;;5088835;28;20263;-86
2021/07/30 09:24:40;;;;;;;0.60;0.60;;;24.60;99.90;;;;;;5097734;28;20191;-85
2021/07/30 09:27:08;;;;;;;0.60;0.57;;;24.70;99.90;;;;;;5098215;28;20557;-86
2021/07/30 09:29:34;;;;;;;1.30;1.20;;;24.90;99.90;;;;;;5110329;28;20225;-86
2021/07/30 09:32:04;;;;;;;0.50;0.50;;;24.90;99.90;;;;;;5104368;28;20172;-86
2021/07/30 09:34:36;;;;;;;0.70;0.70;;;25.10;99.90;;;;;;5108696;27;20652;-86
2021/07/30 09:37:21;;;;;;;0.30;0.30;;;25.00;99.90;;;;;;5100993;28;20172;-86
2021/07/30 09:39:49;;;;;;;0.47;0.30;;;24.90;99.90;;;;;;5097397;28;20204;-86
2021/07/30 09:42:17;;;;;;;0.43;0.43;;;25.00;99.90;;;;;;5084858;28;20185;-86
2021/07/30 09:44:56;;;;;;;0.40;0.40;;;25.20;99.90;;;;;;5097031;28;20188;-86
2021/07/30 09:47:24;;;;;;;0.43;0.43;;;25.60;99.90;;;;;;5099897;28;20592;-87
2021/07/30 09:49:54;;;;;;;0.30;0.30;;;26.10;99.90;;;;;;5083882;28;20239;-86
2021/07/30 09:52:25;;;;;;;1.10;0.70;;;26.40;99.90;;;;;;5093620;28;20253;-86
2021/07/30 09:54:56;;;;;;;0.60;0.60;;;26.50;99.90;;;;;;5103579;28;20665;-86
2021/07/30 09:57:32;;;;;;;1.63;1.30;;;26.60;99.90;;;;;;5102298;28;20173;-89
2021/07/30 10:00:04;;;;;;;1.27;0.73;;;26.30;99.90;;;;;;5092128;28;20195;-86
2021/07/30 10:02:31;;;;;;;0.23;0.23;;;26.50;99.90;;;;;;5100682;28;20185;-86
2021/07/30 10:04:59;;;;;;;0.20;0.20;;;26.50;99.90;;;;;;5073654;28;20195;-86
2021/07/30 10:07:26;;;;;;;0.80;0.80;;;26.80;99.90;;;;;;5094319;28;20607;-86
2021/07/30 10:12:54;;;;;;;0.30;0.30;;;26.90;99.90;;;;;;5085344;28;20194;-86
2021/07/30 10:15:20;;;;;;;0.50;0.50;;;27.20;99.90;;;;;;5091163;28;20172;-86
2021/07/30 10:17:51;;;;;;;0.47;0.47;;;27.20;99.90;;;;;;5092085;28;20575;-86
2021/07/30 10:20:18;;;;;;;0.50;0.50;;;26.90;99.90;;;;;;5078578;28;20564;-86
2021/07/30 10:23:08;;;;;;;0.60;0.60;;;26.70;99.90;;;;;;5097866;28;20216;-86
2021/07/30 10:25:36;;;;;;;0.60;0.60;;;26.50;99.90;;;;;;5083341;28;20193;-86
2021/07/30 10:28:11;;;;;;;0.60;0.60;;;26.40;99.90;;;;;;5098885;28;20188;-86
2021/07/30 10:31:02;;;;;;;3.27;1.50;;;26.70;99.90;;;;;;5090933;28;20295;-86
2021/07/30 10:33:31;;;;;;;0.57;0.57;;;26.60;99.90;;;;;;5093703;28;20552;-86
2021/07/30 10:36:01;;;;;;;3.53;0.70;;;26.60;99.90;;;;;;5098420;28;20547;-86
2021/07/30 10:38:27;;;;;;;2.03;1.57;;;26.30;99.90;;;;;;5087775;28;20195;-86
2021/07/30 10:40:56;;;;;;;1.43;1.33;;;26.30;99.90;;;;;;5117111;27;20200;-86
2021/07/30 10:43:23;;;;;;;0.47;0.47;;;26.20;99.90;;;;;;5105255;28;20192;-86
2021/07/30 10:46:11;;;;;;;0.63;0.43;;;26.10;99.90;;;;;;5098556;28;20279;-86
2021/07/30 10:48:40;;;;;;;0.43;0.37;;;25.90;99.90;;;;;;5087475;28;20741;-86
2021/07/30 10:51:18;;;;;;;0.77;0.70;;;26.20;99.90;;;;;;5100168;28;20212;-86
2021/07/30 10:53:48;;;;;;;0.73;0.40;;;26.40;99.90;;;;;;5087973;28;20173;-86
2021/07/30 10:56:17;;;;;;;0.47;0.40;;;26.70;99.90;;;;;;5079959;28;20195;-85
2021/07/30 10:58:43;;;;;;;0.50;0.50;;;26.80;99.90;;;;;;5093592;28;20173;-86
2021/07/30 11:01:14;;;;;;;0.30;0.30;;;26.40;99.90;;;;;;5089751;28;20207;-86
2021/07/30 11:03:52;;;;;;;0.30;0.30;;;26.60;99.90;;;;;;5095442;28;20185;-86
2021/07/30 11:06:26;;;;;;;1.80;0.70;;;26.80;99.90;;;;;;5098297;28;20729;-86
2021/07/30 11:09:03;;;;;;;0.63;0.53;;;27.00;99.90;;;;;;5102334;28;20173;-86
2021/07/30 11:11:51;;;;;;;0.53;0.53;;;27.10;99.90;;;;;;5083278;28;20203;-86
2021/07/30 11:14:21;;;;;;;0.50;0.50;;;26.80;99.90;;;;;;5091728;28;20173;-85
2021/07/30 11:16:57;;;;;;;0.80;0.80;;;26.80;99.90;;;;;;5100181;28;20825;-86
2021/07/30 11:19:25;;;;;;;0.60;0.60;;;26.70;99.90;;;;;;5103616;28;20195;-85
2021/07/30 11:21:54;;;;;;;1.03;1.03;;;26.90;99.90;;;;;;5109113;28;20618;-86
2021/07/30 11:24:20;;;;;;;0.53;0.53;;;27.00;99.90;;;;;;5088155;28;20228;-86
2021/07/30 11:26:46;;;;;;;0.70;0.70;;;27.00;99.90;;;;;;5093956;28;20173;-87
2021/07/30 11:29:17;;;;;;;0.57;0.57;;;26.90;99.90;;;;;;5092176;28;20173;-86
2021/07/30 11:32:00;;;;;;;0.50;0.50;;;27.20;99.90;;;;;;5100273;28;20203;-86
2021/07/30 11:34:46;;;;;;;0.80;0.80;;;27.50;99.90;;;;;;5098257;28;20180;-86
2021/07/30 11:37:16;;;;;;;0.37;0.37;;;27.40;99.90;;;;;;5087194;28;20177;-86
2021/07/30 11:39:47;;;;;;;0.50;0.50;;;27.70;99.90;;;;;;5099099;28;20693;-87
2021/07/30 11:42:27;;;;;;;0.73;0.40;;;27.70;99.90;;;;;;5100207;28;20177;-86
2021/07/30 11:44:56;;;;;;;0.70;0.63;;;27.90;99.90;;;;;;5088397;28;20208;-86
2021/07/30 11:47:26;;;;;;;0.53;0.30;;;28.00;99.90;;;;;;5102604;28;20191;-86
2021/07/30 11:50:09;;;;;;;0.40;0.40;;;28.10;99.90;;;;;;5075387;28;20209;-85
2021/07/30 11:52:39;;;;;;;0.67;0.67;;;28.20;99.90;;;;;;5083451;28;20711;-86
2021/07/30 11:55:16;;;;;;;0.30;0.30;;;28.20;99.90;;;;;;5082125;28;20181;-86
2021/07/30 11:57:43;;;;;;;0.43;0.43;;;28.30;99.90;;;;;;5086804;28;20204;-85
2021/07/30 12:00:21;;;;;;;1.57;1.17;;;28.30;99.90;;;;;;5089065;28;20204;-86
2021/07/30 12:02:46;;;;;;;0.60;0.60;;;28.10;99.90;;;;;;5095827;28;20192;-86
2021/07/30 12:05:15;;;;;;;0.57;0.50;;;28.00;99.90;;;;;;5095967;28;20627;-87
2021/07/30 12:07:45;;;;;;;2.23;1.17;;;28.20;99.90;;;;;;5080810;28;20791;-88
2021/07/30 12:10:16;;;;;;;0.53;0.53;;;28.30;99.90;;;;;;5098806;28;20212;-88
2021/07/30 12:12:43;;;;;;;0.43;0.40;;;28.20;99.90;;;;;;5101397;28;20194;-87
2021/07/30 12:15:17;;;;;;;0.97;0.60;;;28.40;99.90;;;;;;5100238;28;20188;-87
2021/07/30 12:17:43;;;;;;;0.50;0.50;;;28.50;99.90;;;;;;5096309;28;20194;-87
2021/07/30 12:20:13;;;;;;;0.27;0.27;;;28.60;99.90;;;;;;5085656;28;20221;-88
2021/07/30 12:22:39;;;;;;;0.50;0.50;;;28.80;99.90;;;;;;5095757;28;20187;-88
2021/07/30 12:25:07;;;;;;;1.92;1.00;;;28.70;99.90;;;;;;5099911;28;20683;-87
2021/07/30 12:27:33;;;;;;;0.32;0.30;;;28.70;99.90;;;;;;5085152;28;20177;-87
2021/07/30 12:29:59;;;;;;;0.52;0.52;;;28.90;99.90;;;;;;5104893;28;20253;-88
2021/07/30 12:32:34;;;;;;;0.88;0.57;;;28.50;99.90;;;;;;5081364;28;20177;-87
2021/07/30 12:35:14;;;;;;;0.57;0.57;;;28.60;99.90;;;;;;5077387;28;20196;-86
2021/07/30 12:38:02;;;;;;;0.75;0.70;;;28.70;99.90;;;;;;5099866;28;20184;-87
2021/07/30 12:40:28;;;;;;;0.60;0.60;;;28.90;99.90;;;;;;5090749;28;20212;-87
2021/07/30 12:43:12;;;;;;;0.52;0.50;;;29.10;99.90;;;;;;5097639;28;20188;-87
2021/07/30 12:45:43;;;;;;;0.98;0.98;;;29.10;99.90;;;;;;5101815;28;20262;-87
2021/07/30 12:48:09;;;;;;;0.50;0.50;;;28.90;99.90;;;;;;5100744;28;20225;-87
2021/07/30 12:50:39;;;;;;;0.43;0.43;;;29.00;99.90;;;;;;5082962;28;20218;-87
2021/07/30 12:53:19;;;;;;;0.68;0.50;;;29.10;99.90;;;;;;5098640;28;20177;-87
2021/07/30 12:56:04;;;;;;;0.80;0.60;;;28.90;99.90;;;;;;5091692;28;20672;-87